sensor_id;sensor_type;location;lat;lon;timestamp;temperature;humidity
27781;DHT22;15167;1.318;103.762;2023-08-06T00:00:37;28.30;99.90
27781;DHT22;15167;1.318;103.762;2023-08-06T00:03:03;28.40;99.90
27781;DHT22;15167;1.318;103.762;2023-08-06T00:05:30;28.50;99.90
27781;DHT22;15167;1.318;103.762;2023-08-06T00:07:56;28.50;99.90
27781;DHT22;15167;1.318;103.762;2023-08-06T00:10:23;28.60;77.20
27781;DHT22;15167;1.318;103.762;2023-08-06T00:12:49;28.60;55.80
27781;DHT22;15167;1.318;103.762;2023-08-06T00:15:16;28.70;42.00
27781;DHT22;15167;1.318;103.762;2023-08-06T00:17:43;28.70;7.50
27781;DHT22;15167;1.318;103.762;2023-08-06T00:20:09;28.70;1.00
27781;DHT22;15167;1.318;103.762;2023-08-06T00:22:37;28.70;1.00
27781;DHT22;15167;1.318;103.762;2023-08-06T00:25:05;28.80;1.00
27781;DHT22;15167;1.318;103.762;2023-08-06T00:27:32;28.80;1.00
27781;DHT22;15167;1.318;103.762;2023-08-06T00:29:59;28.90;1.00
27781;DHT22;15167;1.318;103.762;2023-08-06T00:32:25;28.90;1.00
27781;DHT22;15167;1.318;103.762;2023-08-06T00:34:52;29.00;1.00
27781;DHT22;15167;1.318;103.762;2023-08-06T00:37:18;29.00;99.90
27781;DHT22;15167;1.318;103.762;2023-08-06T00:39:45;29.00;99.90
27781;DHT22;15167;1.318;103.762;2023-08-06T00:42:12;29.10;99.90
27781;DHT22;15167;1.318;103.762;2023-08-06T00:44:39;29.10;99.90
27781;DHT22;15167;1.318;103.762;2023-08-06T00:47:08;29.20;99.90
27781;DHT22;15167;1.318;103.762;2023-08-06T00:49:35;29.30;99.90
27781;DHT22;15167;1.318;103.762;2023-08-06T00:52:06;29.30;99.90
27781;DHT22;15167;1.318;103.762;2023-08-06T00:54:33;29.30;99.90
27781;DHT22;15167;1.318;103.762;2023-08-06T00:57:01;29.40;99.90
27781;DHT22;15167;1.318;103.762;2023-08-06T00:59:29;29.40;99.90
27781;DHT22;15167;1.318;103.762;2023-08-06T01:01:56;29.50;99.90
27781;DHT22;15167;1.318;103.762;2023-08-06T01:04:23;29.60;44.30
27781;DHT22;15167;1.318;103.762;2023-08-06T01:07:02;29.70;1.00
27781;DHT22;15167;1.318;103.762;2023-08-06T01:15:13;29.80;99.90
27781;DHT22;15167;1.318;103.762;2023-08-06T01:17:42;29.80;99.90
27781;DHT22;15167;1.318;103.762;2023-08-06T01:20:10;29.80;99.90
27781;DHT22;15167;1.318;103.762;2023-08-06T01:22:36;29.90;99.90
27781;DHT22;15167;1.318;103.762;2023-08-06T01:25:03;30.00;99.90
27781;DHT22;15167;1.318;103.762;2023-08-06T01:27:43;30.10;99.90
27781;DHT22;15167;1.318;103.762;2023-08-06T01:30:27;30.10;99.90
27781;DHT22;15167;1.318;103.762;2023-08-06T01:33:00;30.10;99.90
27781;DHT22;15167;1.318;103.762;2023-08-06T01:35:28;30.10;80.60
27781;DHT22;15167;1.318;103.762;2023-08-06T01:37:55;30.10;87.20
27781;DHT22;15167;1.318;103.762;2023-08-06T01:40:22;30.10;46.60
27781;DHT22;15167;1.318;103.762;2023-08-06T01:42:48;30.20;66.40
27781;DHT22;15167;1.318;103.762;2023-08-06T01:45:15;30.20;25.40
27781;DHT22;15167;1.318;103.762;2023-08-06T01:47:41;30.20;70.00
27781;DHT22;15167;1.318;103.762;2023-08-06T01:50:08;30.30;90.00
27781;DHT22;15167;1.318;103.762;2023-08-06T01:52:35;30.30;19.60
27781;DHT22;15167;1.318;103.762;2023-08-06T01:55:02;30.30;1.00
27781;DHT22;15167;1.318;103.762;2023-08-06T01:57:28;30.50;99.90
27781;DHT22;15167;1.318;103.762;2023-08-06T01:59:55;30.60;99.90
27781;DHT22;15167;1.318;103.762;2023-08-06T02:02:22;30.60;99.90
27781;DHT22;15167;1.318;103.762;2023-08-06T02:04:48;30.70;99.90
27781;DHT22;15167;1.318;103.762;2023-08-06T02:07:15;30.70;99.90
27781;DHT22;15167;1.318;103.762;2023-08-06T02:09:41;30.70;99.90
27781;DHT22;15167;1.318;103.762;2023-08-06T02:12:08;30.70;99.90
27781;DHT22;15167;1.318;103.762;2023-08-06T02:14:34;30.70;1.00
27781;DHT22;15167;1.318;103.762;2023-08-06T02:17:01;30.70;99.90
27781;DHT22;15167;1.318;103.762;2023-08-06T02:19:28;30.70;99.90
27781;DHT22;15167;1.318;103.762;2023-08-06T02:21:54;30.90;99.90
27781;DHT22;15167;1.318;103.762;2023-08-06T02:24:21;31.00;99.90
27781;DHT22;15167;1.318;103.762;2023-08-06T02:26:47;31.10;99.90
27781;DHT22;15167;1.318;103.762;2023-08-06T02:29:18;31.20;99.90
27781;DHT22;15167;1.318;103.762;2023-08-06T02:31:44;31.20;99.90
27781;DHT22;15167;1.318;103.762;2023-08-06T02:34:11;31.10;99.90
27781;DHT22;15167;1.318;103.762;2023-08-06T02:36:37;31.20;99.90
27781;DHT22;15167;1.318;103.762;2023-08-06T02:39:04;31.20;99.90
27781;DHT22;15167;1.318;103.762;2023-08-06T02:41:30;31.30;99.90
27781;DHT22;15167;1.318;103.762;2023-08-06T02:43:57;31.20;99.90
27781;DHT22;15167;1.318;103.762;2023-08-06T02:46:23;31.10;99.90
27781;DHT22;15167;1.318;103.762;2023-08-06T02:48:50;31.00;1.00
27781;DHT22;15167;1.318;103.762;2023-08-06T02:51:16;30.90;1.00
27781;DHT22;15167;1.318;103.762;2023-08-06T02:53:43;30.90;1.00
27781;DHT22;15167;1.318;103.762;2023-08-06T02:56:09;30.90;1.00
27781;DHT22;15167;1.318;103.762;2023-08-06T02:58:35;31.00;1.00
27781;DHT22;15167;1.318;103.762;2023-08-06T03:01:06;31.20;1.00
27781;DHT22;15167;1.318;103.762;2023-08-06T03:03:33;31.50;1.00
27781;DHT22;15167;1.318;103.762;2023-08-06T03:06:00;31.60;99.90
27781;DHT22;15167;1.318;103.762;2023-08-06T03:08:27;31.50;99.90
27781;DHT22;15167;1.318;103.762;2023-08-06T03:10:54;31.50;99.90
27781;DHT22;15167;1.318;103.762;2023-08-06T03:13:21;31.50;99.90
27781;DHT22;15167;1.318;103.762;2023-08-06T03:15:55;31.60;99.90
27781;DHT22;15167;1.318;103.762;2023-08-06T03:18:22;31.50;99.90
27781;DHT22;15167;1.318;103.762;2023-08-06T03:20:49;31.40;99.90
27781;DHT22;15167;1.318;103.762;2023-08-06T03:23:16;31.50;99.90
27781;DHT22;15167;1.318;103.762;2023-08-06T03:25:43;31.50;99.90
27781;DHT22;15167;1.318;103.762;2023-08-06T03:28:09;31.40;1.00
27781;DHT22;15167;1.318;103.762;2023-08-06T03:30:36;31.50;1.00
27781;DHT22;15167;1.318;103.762;2023-08-06T03:33:03;31.70;1.00
27781;DHT22;15167;1.318;103.762;2023-08-06T03:35:29;31.90;99.90
27781;DHT22;15167;1.318;103.762;2023-08-06T03:37:56;32.10;99.90
27781;DHT22;15167;1.318;103.762;2023-08-06T03:40:22;32.10;99.90
27781;DHT22;15167;1.318;103.762;2023-08-06T03:42:49;32.00;99.90
27781;DHT22;15167;1.318;103.762;2023-08-06T03:45:15;32.00;99.90
27781;DHT22;15167;1.318;103.762;2023-08-06T03:47:42;31.90;99.90
27781;DHT22;15167;1.318;103.762;2023-08-06T03:50:09;31.80;99.90
27781;DHT22;15167;1.318;103.762;2023-08-06T03:52:36;31.90;99.90
27781;DHT22;15167;1.318;103.762;2023-08-06T03:55:02;31.80;99.90
27781;DHT22;15167;1.318;103.762;2023-08-06T03:57:29;31.70;99.90
27781;DHT22;15167;1.318;103.762;2023-08-06T03:59:55;31.90;99.90
27781;DHT22;15167;1.318;103.762;2023-08-06T04:02:22;31.90;99.90
27781;DHT22;15167;1.318;103.762;2023-08-06T04:04:49;32.00;99.90
27781;DHT22;15167;1.318;103.762;2023-08-06T04:07:15;32.20;99.90
27781;DHT22;15167;1.318;103.762;2023-08-06T04:09:53;32.30;99.90
27781;DHT22;15167;1.318;103.762;2023-08-06T04:12:20;32.50;99.90
27781;DHT22;15167;1.318;103.762;2023-08-06T04:14:46;32.60;99.90
27781;DHT22;15167;1.318;103.762;2023-08-06T04:17:13;32.60;99.90
27781;DHT22;15167;1.318;103.762;2023-08-06T04:19:39;32.70;99.90
27781;DHT22;15167;1.318;103.762;2023-08-06T04:22:06;32.80;99.90
27781;DHT22;15167;1.318;103.762;2023-08-06T04:24:33;32.90;99.90
27781;DHT22;15167;1.318;103.762;2023-08-06T04:26:59;33.10;99.90
27781;DHT22;15167;1.318;103.762;2023-08-06T04:29:26;33.20;99.90
27781;DHT22;15167;1.318;103.762;2023-08-06T04:31:53;33.20;99.90
27781;DHT22;15167;1.318;103.762;2023-08-06T04:34:19;33.30;99.90
27781;DHT22;15167;1.318;103.762;2023-08-06T04:36:46;33.20;99.90
27781;DHT22;15167;1.318;103.762;2023-08-06T04:39:12;33.20;99.90
27781;DHT22;15167;1.318;103.762;2023-08-06T04:41:39;33.40;99.90
27781;DHT22;15167;1.318;103.762;2023-08-06T04:44:05;33.60;99.90
27781;DHT22;15167;1.318;103.762;2023-08-06T04:46:32;33.60;99.90
27781;DHT22;15167;1.318;103.762;2023-08-06T04:49:01;33.60;99.90
27781;DHT22;15167;1.318;103.762;2023-08-06T04:51:28;33.80;99.90
27781;DHT22;15167;1.318;103.762;2023-08-06T04:53:56;33.90;99.90
27781;DHT22;15167;1.318;103.762;2023-08-06T04:56:22;34.00;99.90
27781;DHT22;15167;1.318;103.762;2023-08-06T04:58:49;34.20;99.90
27781;DHT22;15167;1.318;103.762;2023-08-06T05:01:16;34.40;99.90
27781;DHT22;15167;1.318;103.762;2023-08-06T05:03:43;34.50;99.90
27781;DHT22;15167;1.318;103.762;2023-08-06T05:06:09;34.70;99.90
27781;DHT22;15167;1.318;103.762;2023-08-06T05:08:36;34.40;99.90
27781;DHT22;15167;1.318;103.762;2023-08-06T05:11:03;34.70;99.90
27781;DHT22;15167;1.318;103.762;2023-08-06T05:13:29;34.70;99.90
27781;DHT22;15167;1.318;103.762;2023-08-06T05:15:56;34.70;99.90
27781;DHT22;15167;1.318;103.762;2023-08-06T05:18:23;34.70;99.90
27781;DHT22;15167;1.318;103.762;2023-08-06T05:20:50;35.10;99.90
27781;DHT22;15167;1.318;103.762;2023-08-06T05:23:16;35.20;98.90
27781;DHT22;15167;1.318;103.762;2023-08-06T05:25:43;35.40;94.60
27781;DHT22;15167;1.318;103.762;2023-08-06T05:28:10;35.60;91.00
27781;DHT22;15167;1.318;103.762;2023-08-06T05:30:40;35.80;85.10
27781;DHT22;15167;1.318;103.762;2023-08-06T05:33:07;35.80;80.50
27781;DHT22;15167;1.318;103.762;2023-08-06T05:35:33;35.80;79.80
27781;DHT22;15167;1.318;103.762;2023-08-06T05:38:00;35.90;76.80
27781;DHT22;15167;1.318;103.762;2023-08-06T05:40:26;36.00;75.40
27781;DHT22;15167;1.318;103.762;2023-08-06T05:42:55;35.60;79.00
27781;DHT22;15167;1.318;103.762;2023-08-06T05:45:22;35.60;81.40
27781;DHT22;15167;1.318;103.762;2023-08-06T05:47:49;35.50;82.70
27781;DHT22;15167;1.318;103.762;2023-08-06T05:50:16;35.30;85.10
27781;DHT22;15167;1.318;103.762;2023-08-06T05:52:42;35.20;88.00
27781;DHT22;15167;1.318;103.762;2023-08-06T05:55:09;35.20;91.70
27781;DHT22;15167;1.318;103.762;2023-08-06T05:57:35;35.20;92.70
27781;DHT22;15167;1.318;103.762;2023-08-06T06:00:03;35.10;93.00
27781;DHT22;15167;1.318;103.762;2023-08-06T06:02:32;35.40;88.90
27781;DHT22;15167;1.318;103.762;2023-08-06T06:04:58;35.40;85.90
27781;DHT22;15167;1.318;103.762;2023-08-06T06:07:25;35.50;79.50
27781;DHT22;15167;1.318;103.762;2023-08-06T06:09:51;35.50;87.10
27781;DHT22;15167;1.318;103.762;2023-08-06T06:12:18;35.00;96.20
27781;DHT22;15167;1.318;103.762;2023-08-06T06:14:44;34.90;99.90
27781;DHT22;15167;1.318;103.762;2023-08-06T06:17:11;34.70;99.90
27781;DHT22;15167;1.318;103.762;2023-08-06T06:19:37;34.60;99.90
27781;DHT22;15167;1.318;103.762;2023-08-06T06:22:04;34.60;99.90
27781;DHT22;15167;1.318;103.762;2023-08-06T06:24:31;34.50;99.90
27781;DHT22;15167;1.318;103.762;2023-08-06T06:26:57;34.50;99.90
27781;DHT22;15167;1.318;103.762;2023-08-06T06:29:24;34.60;99.90
27781;DHT22;15167;1.318;103.762;2023-08-06T06:31:50;34.60;99.90
27781;DHT22;15167;1.318;103.762;2023-08-06T06:34:17;34.50;99.90
27781;DHT22;15167;1.318;103.762;2023-08-06T06:36:43;34.40;99.90
27781;DHT22;15167;1.318;103.762;2023-08-06T06:39:10;34.60;99.90
27781;DHT22;15167;1.318;103.762;2023-08-06T06:41:36;34.80;96.90
27781;DHT22;15167;1.318;103.762;2023-08-06T06:44:03;34.70;95.80
27781;DHT22;15167;1.318;103.762;2023-08-06T06:46:30;34.70;97.50
27781;DHT22;15167;1.318;103.762;2023-08-06T06:48:56;34.90;91.40
27781;DHT22;15167;1.318;103.762;2023-08-06T06:51:23;35.20;87.20
27781;DHT22;15167;1.318;103.762;2023-08-06T06:53:49;35.50;70.90
27781;DHT22;15167;1.318;103.762;2023-08-06T06:56:16;35.50;62.80
27781;DHT22;15167;1.318;103.762;2023-08-06T06:58:42;35.50;61.70
27781;DHT22;15167;1.318;103.762;2023-08-06T07:01:09;35.50;55.00
27781;DHT22;15167;1.318;103.762;2023-08-06T07:03:37;35.80;52.00
27781;DHT22;15167;1.318;103.762;2023-08-06T07:06:04;36.10;35.00
27781;DHT22;15167;1.318;103.762;2023-08-06T07:08:31;36.30;19.00
27781;DHT22;15167;1.318;103.762;2023-08-06T07:11:05;36.20;11.30
27781;DHT22;15167;1.318;103.762;2023-08-06T07:13:33;36.30;8.00
27781;DHT22;15167;1.318;103.762;2023-08-06T07:16:00;36.10;4.80
27781;DHT22;15167;1.318;103.762;2023-08-06T07:18:26;36.20;3.60
27781;DHT22;15167;1.318;103.762;2023-08-06T07:20:54;36.40;2.10
27781;DHT22;15167;1.318;103.762;2023-08-06T07:23:22;36.60;1.10
27781;DHT22;15167;1.318;103.762;2023-08-06T07:25:49;36.70;1.00
27781;DHT22;15167;1.318;103.762;2023-08-06T07:28:15;36.70;1.00
27781;DHT22;15167;1.318;103.762;2023-08-06T07:30:44;36.80;1.00
27781;DHT22;15167;1.318;103.762;2023-08-06T07:33:10;36.90;1.00
27781;DHT22;15167;1.318;103.762;2023-08-06T07:35:38;37.20;1.00
27781;DHT22;15167;1.318;103.762;2023-08-06T07:38:05;37.00;1.00
27781;DHT22;15167;1.318;103.762;2023-08-06T07:40:32;36.70;1.00
27781;DHT22;15167;1.318;103.762;2023-08-06T07:42:58;36.60;1.00
27781;DHT22;15167;1.318;103.762;2023-08-06T07:45:25;36.30;1.00
27781;DHT22;15167;1.318;103.762;2023-08-06T07:47:53;36.40;1.00
27781;DHT22;15167;1.318;103.762;2023-08-06T07:50:19;36.40;1.00
27781;DHT22;15167;1.318;103.762;2023-08-06T07:52:46;36.30;1.00
27781;DHT22;15167;1.318;103.762;2023-08-06T07:55:12;36.30;1.00
27781;DHT22;15167;1.318;103.762;2023-08-06T07:57:39;36.10;1.00
27781;DHT22;15167;1.318;103.762;2023-08-06T08:00:06;35.80;1.00
27781;DHT22;15167;1.318;103.762;2023-08-06T08:02:32;35.60;1.00
27781;DHT22;15167;1.318;103.762;2023-08-06T08:04:59;35.50;1.00
27781;DHT22;15167;1.318;103.762;2023-08-06T08:07:26;35.40;1.00
27781;DHT22;15167;1.318;103.762;2023-08-06T08:09:54;35.10;2.50
27781;DHT22;15167;1.318;103.762;2023-08-06T08:12:21;35.00;4.10
27781;DHT22;15167;1.318;103.762;2023-08-06T08:14:48;34.90;1.00
27781;DHT22;15167;1.318;103.762;2023-08-06T08:17:14;34.80;1.20
27781;DHT22;15167;1.318;103.762;2023-08-06T08:19:41;34.70;4.30
27781;DHT22;15167;1.318;103.762;2023-08-06T08:22:07;34.60;6.20
27781;DHT22;15167;1.318;103.762;2023-08-06T08:24:34;34.60;5.60
27781;DHT22;15167;1.318;103.762;2023-08-06T08:27:01;34.50;5.60
27781;DHT22;15167;1.318;103.762;2023-08-06T08:29:28;34.50;3.60
27781;DHT22;15167;1.318;103.762;2023-08-06T08:31:54;34.50;3.30
27781;DHT22;15167;1.318;103.762;2023-08-06T08:34:21;34.60;4.80
27781;DHT22;15167;1.318;103.762;2023-08-06T08:36:47;34.60;4.10
27781;DHT22;15167;1.318;103.762;2023-08-06T08:39:15;34.60;3.10
27781;DHT22;15167;1.318;103.762;2023-08-06T08:41:42;34.60;3.40
27781;DHT22;15167;1.318;103.762;2023-08-06T08:44:10;34.50;1.00
27781;DHT22;15167;1.318;103.762;2023-08-06T08:46:38;34.50;1.00
27781;DHT22;15167;1.318;103.762;2023-08-06T08:49:05;34.50;1.00
27781;DHT22;15167;1.318;103.762;2023-08-06T08:51:34;34.50;3.60
27781;DHT22;15167;1.318;103.762;2023-08-06T08:54:03;34.50;3.00
27781;DHT22;15167;1.318;103.762;2023-08-06T08:56:31;34.40;9.30
27781;DHT22;15167;1.318;103.762;2023-08-06T08:58:58;34.40;2.20
27781;DHT22;15167;1.318;103.762;2023-08-06T09:01:26;34.40;2.50
27781;DHT22;15167;1.318;103.762;2023-08-06T09:03:54;34.40;3.50
27781;DHT22;15167;1.318;103.762;2023-08-06T09:06:21;34.30;5.20
27781;DHT22;15167;1.318;103.762;2023-08-06T09:09:25;34.30;8.30
27781;DHT22;15167;1.318;103.762;2023-08-06T09:11:52;34.50;6.80
27781;DHT22;15167;1.318;103.762;2023-08-06T09:14:21;34.50;8.10
27781;DHT22;15167;1.318;103.762;2023-08-06T09:16:48;34.50;8.90
27781;DHT22;15167;1.318;103.762;2023-08-06T09:19:15;34.50;10.00
27781;DHT22;15167;1.318;103.762;2023-08-06T09:21:43;34.50;6.90
27781;DHT22;15167;1.318;103.762;2023-08-06T09:24:11;34.40;9.80
27781;DHT22;15167;1.318;103.762;2023-08-06T09:26:43;34.30;12.40
27781;DHT22;15167;1.318;103.762;2023-08-06T09:29:10;34.50;15.30
27781;DHT22;15167;1.318;103.762;2023-08-06T09:31:45;34.50;12.80
27781;DHT22;15167;1.318;103.762;2023-08-06T09:34:22;34.60;7.20
27781;DHT22;15167;1.318;103.762;2023-08-06T09:36:53;34.40;3.70
27781;DHT22;15167;1.318;103.762;2023-08-06T09:39:24;34.30;2.90
27781;DHT22;15167;1.318;103.762;2023-08-06T09:41:56;34.20;5.90
27781;DHT22;15167;1.318;103.762;2023-08-06T09:44:25;34.30;1.00
27781;DHT22;15167;1.318;103.762;2023-08-06T09:47:01;34.50;1.00
27781;DHT22;15167;1.318;103.762;2023-08-06T09:51:59;34.90;1.00
27781;DHT22;15167;1.318;103.762;2023-08-06T09:54:27;35.00;1.00
27781;DHT22;15167;1.318;103.762;2023-08-06T09:56:55;34.90;1.00
27781;DHT22;15167;1.318;103.762;2023-08-06T09:59:23;35.10;1.00
27781;DHT22;15167;1.318;103.762;2023-08-06T10:01:50;35.10;1.00
27781;DHT22;15167;1.318;103.762;2023-08-06T10:04:17;35.40;1.00
27781;DHT22;15167;1.318;103.762;2023-08-06T10:06:46;35.80;1.00
27781;DHT22;15167;1.318;103.762;2023-08-06T10:09:16;36.10;1.00
27781;DHT22;15167;1.318;103.762;2023-08-06T10:11:45;36.10;1.00
27781;DHT22;15167;1.318;103.762;2023-08-06T10:14:36;36.00;1.00
27781;DHT22;15167;1.318;103.762;2023-08-06T10:17:03;35.80;1.00
27781;DHT22;15167;1.318;103.762;2023-08-06T10:19:31;35.80;1.00
27781;DHT22;15167;1.318;103.762;2023-08-06T10:22:11;35.50;1.00
27781;DHT22;15167;1.318;103.762;2023-08-06T10:24:49;35.30;1.00
27781;DHT22;15167;1.318;103.762;2023-08-06T10:27:35;35.00;1.00
27781;DHT22;15167;1.318;103.762;2023-08-06T10:32:52;34.80;1.00
27781;DHT22;15167;1.318;103.762;2023-08-06T10:35:36;34.80;1.00
27781;DHT22;15167;1.318;103.762;2023-08-06T10:38:10;34.70;1.00
27781;DHT22;15167;1.318;103.762;2023-08-06T10:40:40;34.50;1.00
27781;DHT22;15167;1.318;103.762;2023-08-06T10:43:07;34.40;1.00
27781;DHT22;15167;1.318;103.762;2023-08-06T10:45:36;34.50;1.00
27781;DHT22;15167;1.318;103.762;2023-08-06T10:48:05;34.00;1.00
27781;DHT22;15167;1.318;103.762;2023-08-06T10:50:32;33.70;1.00
27781;DHT22;15167;1.318;103.762;2023-08-06T10:53:04;33.40;1.00
27781;DHT22;15167;1.318;103.762;2023-08-06T10:55:32;33.20;4.50
27781;DHT22;15167;1.318;103.762;2023-08-06T10:57:59;33.10;7.90
27781;DHT22;15167;1.318;103.762;2023-08-06T11:00:25;33.00;11.80
27781;DHT22;15167;1.318;103.762;2023-08-06T11:02:53;32.80;14.30
27781;DHT22;15167;1.318;103.762;2023-08-06T11:05:20;32.70;19.20
27781;DHT22;15167;1.318;103.762;2023-08-06T11:07:47;32.50;26.00
27781;DHT22;15167;1.318;103.762;2023-08-06T11:10:15;32.40;34.80
27781;DHT22;15167;1.318;103.762;2023-08-06T11:12:42;32.30;41.40
27781;DHT22;15167;1.318;103.762;2023-08-06T11:15:09;32.20;54.40
27781;DHT22;15167;1.318;103.762;2023-08-06T11:17:37;32.20;66.90
27781;DHT22;15167;1.318;103.762;2023-08-06T11:20:05;32.10;79.60
27781;DHT22;15167;1.318;103.762;2023-08-06T11:22:33;32.00;89.80
27781;DHT22;15167;1.318;103.762;2023-08-06T11:24:59;32.00;90.20
27781;DHT22;15167;1.318;103.762;2023-08-06T11:27:29;31.90;89.50
27781;DHT22;15167;1.318;103.762;2023-08-06T11:29:55;31.70;98.30
27781;DHT22;15167;1.318;103.762;2023-08-06T11:32:22;31.70;99.90
27781;DHT22;15167;1.318;103.762;2023-08-06T11:34:48;31.60;99.90
27781;DHT22;15167;1.318;103.762;2023-08-06T11:37:15;31.60;99.90
27781;DHT22;15167;1.318;103.762;2023-08-06T11:39:46;31.40;99.90
27781;DHT22;15167;1.318;103.762;2023-08-06T11:42:16;31.30;99.90
27781;DHT22;15167;1.318;103.762;2023-08-06T11:44:42;31.30;99.90
27781;DHT22;15167;1.318;103.762;2023-08-06T11:47:15;31.30;99.90
27781;DHT22;15167;1.318;103.762;2023-08-06T11:49:43;31.30;99.90
27781;DHT22;15167;1.318;103.762;2023-08-06T11:52:23;31.10;99.90
27781;DHT22;15167;1.318;103.762;2023-08-06T11:55:09;31.10;99.90
27781;DHT22;15167;1.318;103.762;2023-08-06T11:57:44;31.10;99.90
27781;DHT22;15167;1.318;103.762;2023-08-06T12:00:12;31.10;99.90
27781;DHT22;15167;1.318;103.762;2023-08-06T12:02:40;31.00;99.90
27781;DHT22;15167;1.318;103.762;2023-08-06T12:05:28;31.00;99.90
27781;DHT22;15167;1.318;103.762;2023-08-06T12:07:59;31.00;99.90
27781;DHT22;15167;1.318;103.762;2023-08-06T12:10:30;31.00;99.90
27781;DHT22;15167;1.318;103.762;2023-08-06T12:12:57;30.90;99.90
27781;DHT22;15167;1.318;103.762;2023-08-06T12:15:24;30.80;99.90
27781;DHT22;15167;1.318;103.762;2023-08-06T12:17:51;30.80;99.90
27781;DHT22;15167;1.318;103.762;2023-08-06T12:20:17;30.80;99.90
27781;DHT22;15167;1.318;103.762;2023-08-06T12:22:44;30.80;99.90
27781;DHT22;15167;1.318;103.762;2023-08-06T12:25:12;30.80;99.90
27781;DHT22;15167;1.318;103.762;2023-08-06T12:27:40;30.80;99.90
27781;DHT22;15167;1.318;103.762;2023-08-06T12:30:07;30.80;99.90
27781;DHT22;15167;1.318;103.762;2023-08-06T12:32:35;30.80;99.90
27781;DHT22;15167;1.318;103.762;2023-08-06T12:35:02;30.70;99.90
27781;DHT22;15167;1.318;103.762;2023-08-06T12:37:29;30.70;99.90
27781;DHT22;15167;1.318;103.762;2023-08-06T12:39:56;30.70;99.90
27781;DHT22;15167;1.318;103.762;2023-08-06T12:42:22;30.70;99.90
27781;DHT22;15167;1.318;103.762;2023-08-06T12:44:50;30.70;99.90
27781;DHT22;15167;1.318;103.762;2023-08-06T12:47:17;30.70;99.90
27781;DHT22;15167;1.318;103.762;2023-08-06T12:49:44;30.60;99.90
27781;DHT22;15167;1.318;103.762;2023-08-06T12:52:10;30.50;99.90
27781;DHT22;15167;1.318;103.762;2023-08-06T12:54:38;30.60;99.90
27781;DHT22;15167;1.318;103.762;2023-08-06T12:57:05;30.50;99.90
27781;DHT22;15167;1.318;103.762;2023-08-06T12:59:32;30.50;99.90
27781;DHT22;15167;1.318;103.762;2023-08-06T13:02:00;30.50;99.90
27781;DHT22;15167;1.318;103.762;2023-08-06T13:04:26;30.50;1.00
27781;DHT22;15167;1.318;103.762;2023-08-06T13:06:53;30.40;1.00
27781;DHT22;15167;1.318;103.762;2023-08-06T13:09:20;30.40;1.00
27781;DHT22;15167;1.318;103.762;2023-08-06T13:11:46;30.40;1.00
27781;DHT22;15167;1.318;103.762;2023-08-06T13:14:16;30.20;1.00
27781;DHT22;15167;1.318;103.762;2023-08-06T13:16:43;30.30;1.00
27781;DHT22;15167;1.318;103.762;2023-08-06T13:19:10;30.30;1.00
27781;DHT22;15167;1.318;103.762;2023-08-06T13:24:08;30.30;8.70
27781;DHT22;15167;1.318;103.762;2023-08-06T13:26:35;30.20;20.40
27781;DHT22;15167;1.318;103.762;2023-08-06T13:29:02;30.20;50.40
27781;DHT22;15167;1.318;103.762;2023-08-06T13:31:29;30.20;52.70
27781;DHT22;15167;1.318;103.762;2023-08-06T13:33:56;30.20;88.20
27781;DHT22;15167;1.318;103.762;2023-08-06T13:36:25;30.10;98.00
27781;DHT22;15167;1.318;103.762;2023-08-06T13:38:52;30.10;99.90
27781;DHT22;15167;1.318;103.762;2023-08-06T13:41:19;30.10;99.90
27781;DHT22;15167;1.318;103.762;2023-08-06T13:43:49;30.10;99.90
27781;DHT22;15167;1.318;103.762;2023-08-06T13:46:18;30.00;99.90
27781;DHT22;15167;1.318;103.762;2023-08-06T13:48:47;30.00;99.90
27781;DHT22;15167;1.318;103.762;2023-08-06T13:51:17;30.10;99.90
27781;DHT22;15167;1.318;103.762;2023-08-06T13:53:43;30.00;99.90
27781;DHT22;15167;1.318;103.762;2023-08-06T13:56:10;30.00;99.90
27781;DHT22;15167;1.318;103.762;2023-08-06T13:58:37;30.00;99.90
27781;DHT22;15167;1.318;103.762;2023-08-06T14:01:04;30.00;99.90
27781;DHT22;15167;1.318;103.762;2023-08-06T14:03:31;30.00;99.90
27781;DHT22;15167;1.318;103.762;2023-08-06T14:05:57;30.00;99.90
27781;DHT22;15167;1.318;103.762;2023-08-06T14:08:24;30.00;99.90
27781;DHT22;15167;1.318;103.762;2023-08-06T14:10:54;30.00;99.90
27781;DHT22;15167;1.318;103.762;2023-08-06T14:13:22;30.00;99.90
27781;DHT22;15167;1.318;103.762;2023-08-06T14:15:48;30.00;99.90
27781;DHT22;15167;1.318;103.762;2023-08-06T14:18:17;29.90;99.90
27781;DHT22;15167;1.318;103.762;2023-08-06T14:20:44;29.90;99.90
27781;DHT22;15167;1.318;103.762;2023-08-06T14:23:11;29.90;99.90
27781;DHT22;15167;1.318;103.762;2023-08-06T14:25:38;29.80;99.90
27781;DHT22;15167;1.318;103.762;2023-08-06T14:28:05;29.90;99.90
27781;DHT22;15167;1.318;103.762;2023-08-06T14:30:33;29.80;99.90
27781;DHT22;15167;1.318;103.762;2023-08-06T14:33:00;29.80;1.00
27781;DHT22;15167;1.318;103.762;2023-08-06T14:35:27;29.90;1.00
27781;DHT22;15167;1.318;103.762;2023-08-06T14:37:53;29.80;1.00
27781;DHT22;15167;1.318;103.762;2023-08-06T14:40:20;29.80;1.00
27781;DHT22;15167;1.318;103.762;2023-08-06T14:42:47;29.70;1.00
27781;DHT22;15167;1.318;103.762;2023-08-06T14:45:13;29.70;1.00
27781;DHT22;15167;1.318;103.762;2023-08-06T14:47:40;29.70;1.00
27781;DHT22;15167;1.318;103.762;2023-08-06T14:50:07;29.70;1.00
27781;DHT22;15167;1.318;103.762;2023-08-06T14:52:33;29.70;1.00
27781;DHT22;15167;1.318;103.762;2023-08-06T14:55:00;29.70;1.00
27781;DHT22;15167;1.318;103.762;2023-08-06T14:57:30;29.70;1.00
27781;DHT22;15167;1.318;103.762;2023-08-06T14:59:57;29.70;1.00
27781;DHT22;15167;1.318;103.762;2023-08-06T15:02:23;29.70;1.00
27781;DHT22;15167;1.318;103.762;2023-08-06T15:04:50;29.70;1.00
27781;DHT22;15167;1.318;103.762;2023-08-06T15:07:19;29.60;1.00
27781;DHT22;15167;1.318;103.762;2023-08-06T15:09:46;29.60;1.00
27781;DHT22;15167;1.318;103.762;2023-08-06T15:12:12;29.60;1.00
27781;DHT22;15167;1.318;103.762;2023-08-06T15:14:39;29.60;1.00
27781;DHT22;15167;1.318;103.762;2023-08-06T15:17:06;29.50;1.00
27781;DHT22;15167;1.318;103.762;2023-08-06T15:19:32;29.50;1.00
27781;DHT22;15167;1.318;103.762;2023-08-06T15:21:59;29.50;1.00
27781;DHT22;15167;1.318;103.762;2023-08-06T15:24:25;29.40;4.70
27781;DHT22;15167;1.318;103.762;2023-08-06T15:26:52;29.40;25.50
27781;DHT22;15167;1.318;103.762;2023-08-06T15:29:18;29.40;28.30
27781;DHT22;15167;1.318;103.762;2023-08-06T15:31:45;29.50;19.60
27781;DHT22;15167;1.318;103.762;2023-08-06T15:34:11;29.80;14.10
27781;DHT22;15167;1.318;103.762;2023-08-06T15:36:38;29.40;21.60
27781;DHT22;15167;1.318;103.762;2023-08-06T15:39:04;29.40;20.90